Time;durP1;ratioP1;P1;durP2;ratioP2;P2;SDS_P1;SDS_P2;PMS_P1;PMS_P2;Temp;Humidity;BMP_temperature;BMP_pressure;BME280_temperature;BME280_humidity;BME280_pressure;Samples;Min_cycle;Max_cycle;Signal;HPM_P1;HPM_P2
2023/03/28 00:00:45;;;;;;;589.53;405.90;;;1.80;99.90;;;;;;5045688;28;20300;-50
2023/03/28 00:03:17;;;;;;;566.70;405.57;;;1.80;99.90;;;;;;5048994;28;20216;-50
2023/03/28 00:05:47;;;;;;;343.70;314.97;;;1.80;99.90;;;;;;5048547;28;20269;-50
2023/03/28 00:08:16;;;;;;;806.30;413.97;;;1.80;99.90;;;;;;5048954;28;20216;-49
2023/03/28 00:10:45;;;;;;;1999.90;679.87;;;1.70;99.90;;;;;;5048677;28;20202;-50
2023/03/28 00:13:13;;;;;;;1418.63;506.43;;;1.70;99.90;;;;;;5048774;28;20217;-51
2023/03/28 00:15:42;;;;;;;293.63;227.23;;;1.70;99.90;;;;;;5048614;28;20789;-50
2023/03/28 00:18:11;;;;;;;1667.17;550.40;;;1.70;99.90;;;;;;5048824;28;20209;-50
2023/03/28 00:20:42;;;;;;;262.67;239.50;;;1.70;99.90;;;;;;5048996;28;20213;-50
2023/03/28 00:23:11;;;;;;;427.13;366.60;;;1.70;99.90;;;;;;5048561;28;20672;-50
2023/03/28 00:25:40;;;;;;;245.70;225.23;;;1.70;99.90;;;;;;5048625;28;20770;-50
2023/03/28 00:28:09;;;;;;;79.93;73.50;;;1.70;99.90;;;;;;5048501;28;20287;-50
2023/03/28 00:30:37;;;;;;;86.40;78.50;;;1.70;99.90;;;;;;5048552;28;20209;-50
2023/03/28 00:33:05;;;;;;;248.70;202.80;;;1.60;99.90;;;;;;5032547;28;20205;-50
2023/03/28 00:35:34;;;;;;;266.33;238.63;;;1.70;99.90;;;;;;5043909;28;20277;-50
2023/03/28 00:38:03;;;;;;;644.97;397.60;;;1.70;99.90;;;;;;5047707;28;20212;-50
2023/03/28 00:40:37;;;;;;;150.93;136.50;;;1.70;99.90;;;;;;5052780;28;20209;-50
2023/03/28 00:43:05;;;;;;;1020.27;471.73;;;1.80;99.90;;;;;;5052182;28;20206;-50
2023/03/28 00:45:33;;;;;;;312.23;280.47;;;1.90;99.90;;;;;;5041394;28;20304;-50
2023/03/28 00:48:07;;;;;;;161.50;149.53;;;1.90;99.90;;;;;;5047960;28;20203;-51
2023/03/28 00:50:47;;;;;;;200.07;183.43;;;1.90;99.90;;;;;;5052145;28;20328;-50
2023/03/28 00:53:19;;;;;;;367.50;332.50;;;2.00;99.90;;;;;;5038338;28;20687;-50
2023/03/28 00:55:51;;;;;;;444.17;264.50;;;2.00;99.90;;;;;;5049915;28;20998;-50
2023/03/28 00:58:24;;;;;;;158.07;144.77;;;2.10;99.90;;;;;;5034305;28;20241;-50
2023/03/28 01:00:53;;;;;;;162.27;147.13;;;2.10;99.90;;;;;;5051934;28;20201;-50
2023/03/28 01:03:26;;;;;;;341.60;282.87;;;2.20;99.90;;;;;;5033855;28;20206;-50
2023/03/28 01:05:56;;;;;;;1263.20;507.60;;;2.20;99.90;;;;;;5031454;28;20230;-49
2023/03/28 01:08:29;;;;;;;203.90;184.07;;;2.10;99.90;;;;;;5031374;28;20682;-50
2023/03/28 01:10:58;;;;;;;1999.90;812.87;;;2.10;99.90;;;;;;5031806;28;20297;-50
2023/03/28 01:13:30;;;;;;;398.90;333.00;;;2.00;99.90;;;;;;5031469;28;20215;-49
2023/03/28 01:15:58;;;;;;;310.90;276.90;;;2.00;99.90;;;;;;5031416;28;20219;-50
2023/03/28 01:18:29;;;;;;;283.57;257.43;;;1.90;99.90;;;;;;5031163;28;20218;-50
2023/03/28 01:21:41;;;;;;;298.00;272.93;;;1.90;99.90;;;;;;5031467;28;20214;-50
2023/03/28 01:25:00;;;;;;;505.33;363.93;;;1.90;99.90;;;;;;5027001;28;20835;-50
2023/03/28 01:27:33;;;;;;;474.13;426.53;;;2.00;99.90;;;;;;5031344;28;20318;-50
2023/03/28 01:30:32;;;;;;;797.80;333.53;;;2.00;99.90;;;;;;5017507;28;20736;-50
2023/03/28 01:33:39;;;;;;;304.87;278.50;;;2.10;99.90;;;;;;5031229;28;20332;-50
2023/03/28 01:36:53;;;;;;;167.47;151.70;;;2.20;99.90;;;;;;5031000;28;20733;-49
2023/03/28 01:39:28;;;;;;;277.50;250.13;;;2.20;99.90;;;;;;5001196;28;20253;-50
2023/03/28 01:42:02;;;;;;;607.53;362.30;;;2.10;99.90;;;;;;5030953;28;20292;-50
2023/03/28 01:44:37;;;;;;;231.03;208.97;;;2.00;99.90;;;;;;5031350;28;20298;-50
2023/03/28 01:47:11;;;;;;;255.80;231.33;;;1.90;99.90;;;;;;5030781;28;20602;-51
2023/03/28 01:49:47;;;;;;;202.47;185.67;;;1.90;99.90;;;;;;5029935;28;20690;-50
2023/03/28 01:52:22;;;;;;;272.97;247.23;;;1.80;99.90;;;;;;5030803;28;20198;-50
2023/03/28 01:54:57;;;;;;;218.87;203.97;;;1.80;99.90;;;;;;5030960;28;20212;-50
2023/03/28 01:57:31;;;;;;;676.90;392.47;;;1.80;99.90;;;;;;5018193;28;20229;-51
2023/03/28 02:00:10;;;;;;;208.60;183.00;;;1.80;99.90;;;;;;5031000;28;20198;-51
2023/03/28 02:02:42;;;;;;;91.37;79.73;;;1.80;99.90;;;;;;5030564;28;20222;-50
2023/03/28 02:05:15;;;;;;;326.50;294.93;;;1.80;99.90;;;;;;5030728;28;20210;-50
2023/03/28 02:07:47;;;;;;;190.13;174.07;;;1.90;99.90;;;;;;5030442;28;20317;-50
2023/03/28 02:10:17;;;;;;;130.50;117.67;;;1.90;99.90;;;;;;5030547;28;20238;-50
2023/03/28 02:12:48;;;;;;;134.10;122.23;;;1.90;99.90;;;;;;5030245;28;20222;-50
2023/03/28 02:15:19;;;;;;;241.13;214.87;;;1.90;99.90;;;;;;5030301;28;20258;-50
2023/03/28 02:17:52;;;;;;;831.27;384.97;;;1.90;99.90;;;;;;5030236;28;20714;-50
2023/03/28 02:20:23;;;;;;;173.57;159.27;;;1.90;99.90;;;;;;5030394;28;20942;-50
2023/03/28 02:22:56;;;;;;;469.80;211.83;;;1.80;99.90;;;;;;5030498;28;20299;-50
2023/03/28 02:25:25;;;;;;;240.13;220.93;;;1.80;99.90;;;;;;5030573;28;20321;-50
2023/03/28 02:27:57;;;;;;;185.77;168.80;;;1.80;99.90;;;;;;5030335;28;20251;-51
2023/03/28 02:30:26;;;;;;;153.37;137.97;;;1.70;99.90;;;;;;5030432;28;20309;-50
2023/03/28 02:32:59;;;;;;;108.30;98.70;;;1.70;99.90;;;;;;5030061;28;20198;-50
2023/03/28 02:35:34;;;;;;;67.00;56.70;;;1.70;99.90;;;;;;5030235;28;20230;-49
2023/03/28 02:38:10;;;;;;;291.47;266.17;;;1.70;99.90;;;;;;5029884;28;20951;-48
2023/03/28 02:40:48;;;;;;;182.37;164.23;;;1.60;99.90;;;;;;5030409;28;20288;-50
2023/03/28 02:43:59;;;;;;;173.77;159.23;;;1.50;99.90;;;;;;5029592;28;20651;-49
2023/03/28 02:46:31;;;;;;;202.60;181.60;;;1.40;99.90;;;;;;5029764;28;20333;-50
2023/03/28 02:49:27;;;;;;;139.17;125.50;;;1.40;99.90;;;;;;5030015;28;20978;-49
2023/03/28 02:52:13;;;;;;;359.20;282.60;;;1.30;99.90;;;;;;5030076;28;20260;-50
2023/03/28 02:54:50;;;;;;;431.03;329.87;;;1.20;99.90;;;;;;5029465;28;20292;-50
2023/03/28 02:57:24;;;;;;;116.33;95.17;;;1.10;99.90;;;;;;5029702;28;20757;-50
2023/03/28 02:59:55;;;;;;;75.27;68.10;;;1.00;99.90;;;;;;5029629;28;20248;-50
2023/03/28 03:02:24;;;;;;;286.20;261.10;;;1.00;99.90;;;;;;5029492;28;20210;-48
2023/03/28 03:04:56;;;;;;;152.53;139.03;;;1.10;99.90;;;;;;5029519;28;20215;-51
2023/03/28 03:07:25;;;;;;;279.93;255.73;;;1.10;99.90;;;;;;5029506;28;20241;-50
2023/03/28 03:09:55;;;;;;;131.20;118.00;;;1.10;99.90;;;;;;5029596;28;20296;-50
2023/03/28 03:12:23;;;;;;;106.43;95.33;;;1.00;99.90;;;;;;5029216;28;20303;-50
2023/03/28 03:14:51;;;;;;;118.73;107.10;;;1.00;99.90;;;;;;5031615;28;20315;-49
2023/03/28 03:17:19;;;;;;;106.83;91.23;;;0.90;99.90;;;;;;5031345;28;20770;-50
2023/03/28 03:19:47;;;;;;;108.83;98.07;;;0.90;99.90;;;;;;5031850;28;20216;-50
2023/03/28 03:22:15;;;;;;;165.57;149.10;;;0.90;99.90;;;;;;5031929;28;20289;-49
2023/03/28 03:24:49;;;;;;;121.90;110.97;;;0.90;99.90;;;;;;5031605;28;20205;-50
2023/03/28 03:27:20;;;;;;;121.57;111.47;;;0.80;99.90;;;;;;5029461;28;20950;-50
2023/03/28 03:29:48;;;;;;;81.17;74.33;;;0.80;99.90;;;;;;5028990;28;20218;-50
2023/03/28 03:32:16;;;;;;;176.70;160.73;;;0.70;99.90;;;;;;5029368;28;20329;-50
2023/03/28 03:34:44;;;;;;;132.40;118.20;;;0.70;99.90;;;;;;5029206;28;20247;-50
2023/03/28 03:37:13;;;;;;;163.23;146.37;;;0.70;99.90;;;;;;5029389;28;20229;-49
2023/03/28 03:39:41;;;;;;;162.03;145.27;;;0.60;99.90;;;;;;5029255;28;20610;-50
2023/03/28 03:42:09;;;;;;;312.17;251.87;;;0.60;99.90;;;;;;5029238;28;20293;-50
2023/03/28 03:44:39;;;;;;;240.30;207.30;;;0.60;99.90;;;;;;5028612;28;20682;-50
2023/03/28 03:47:07;;;;;;;222.87;203.13;;;0.60;99.90;;;;;;5028642;28;20235;-50
2023/03/28 03:49:35;;;;;;;237.10;214.67;;;0.70;99.90;;;;;;5028996;28;20307;-49
2023/03/28 03:52:04;;;;;;;236.00;199.20;;;0.60;99.90;;;;;;5028848;28;20204;-49
2023/03/28 03:54:32;;;;;;;148.73;133.37;;;0.60;99.90;;;;;;5028540;28;20240;-50
2023/03/28 03:57:01;;;;;;;166.50;149.60;;;0.60;99.90;;;;;;5028491;28;20240;-50
2023/03/28 03:59:29;;;;;;;360.93;327.77;;;0.50;99.90;;;;;;5029008;28;20665;-50
2023/03/28 04:01:59;;;;;;;360.50;320.70;;;0.50;99.90;;;;;;5028615;28;20671;-50
2023/03/28 04:04:27;;;;;;;148.90;137.03;;;0.50;99.90;;;;;;5028672;28;20213;-50
2023/03/28 04:06:58;;;;;;;119.43;102.77;;;0.50;99.90;;;;;;5028472;28;20699;-49
2023/03/28 04:09:26;;;;;;;124.93;113.83;;;0.40;99.90;;;;;;5028665;28;20230;-50
2023/03/28 04:11:55;;;;;;;192.53;172.47;;;0.40;99.90;;;;;;5030053;28;20219;-50
2023/03/28 04:14:23;;;;;;;255.10;228.87;;;0.30;99.90;;;;;;5032800;28;20206;-51
2023/03/28 04:16:52;;;;;;;178.03;161.30;;;0.30;99.90;;;;;;5032724;28;20222;-50
2023/03/28 04:19:23;;;;;;;227.77;163.70;;;0.30;99.90;;;;;;5032623;28;20210;-50
2023/03/28 04:21:55;;;;;;;118.60;108.17;;;0.20;99.90;;;;;;5032200;28;20293;-50
2023/03/28 04:24:24;;;;;;;385.57;344.30;;;0.20;99.90;;;;;;5032919;28;20206;-50
2023/03/28 04:26:54;;;;;;;370.47;332.57;;;0.20;99.90;;;;;;5032455;28;20223;-50
2023/03/28 04:29:29;;;;;;;129.10;117.53;;;0.20;99.90;;;;;;5032331;28;20313;-50
2023/03/28 04:31:57;;;;;;;79.30;71.77;;;0.20;99.90;;;;;;5032601;28;20623;-50
2023/03/28 04:34:29;;;;;;;138.53;125.87;;;0.20;99.90;;;;;;5032689;28;20248;-50
2023/03/28 04:37:00;;;;;;;175.07;159.07;;;0.30;99.90;;;;;;5033235;28;20230;-49
2023/03/28 04:39:29;;;;;;;188.03;169.67;;;0.20;99.90;;;;;;5032626;28;20632;-50
2023/03/28 04:42:00;;;;;;;179.67;161.87;;;0.20;99.90;;;;;;5032526;28;20741;-51
2023/03/28 04:44:29;;;;;;;190.87;171.10;;;0.20;99.90;;;;;;5032186;28;20563;-48
2023/03/28 04:46:57;;;;;;;317.23;287.37;;;0.20;99.90;;;;;;5032152;28;20767;-48
2023/03/28 04:49:27;;;;;;;311.53;286.60;;;0.20;99.90;;;;;;5032204;28;20226;-49
2023/03/28 04:51:55;;;;;;;148.07;134.37;;;0.10;99.90;;;;;;5032190;28;20302;-51
2023/03/28 04:54:23;;;;;;;220.07;197.37;;;0.10;99.90;;;;;;5032198;28;20576;-50
2023/03/28 04:56:51;;;;;;;261.67;237.70;;;0.00;99.90;;;;;;5032449;28;20237;-51
2023/03/28 04:59:20;;;;;;;228.67;206.97;;;0.00;99.90;;;;;;5032366;28;20205;-50
2023/03/28 05:01:49;;;;;;;207.47;188.63;;;0.00;99.90;;;;;;5036467;28;20204;-50
2023/03/28 05:04:17;;;;;;;222.90;203.07;;;0.00;99.90;;;;;;5036425;28;20645;-50
2023/03/28 05:06:47;;;;;;;229.50;208.57;;;-0.10;99.90;;;;;;5035226;28;20313;-50
2023/03/28 05:09:17;;;;;;;237.67;213.67;;;-0.10;99.90;;;;;;5034621;28;20259;-49
2023/03/28 05:11:45;;;;;;;220.70;200.60;;;-0.10;99.90;;;;;;5035501;28;20222;-50
2023/03/28 05:14:13;;;;;;;188.50;171.23;;;-0.20;99.90;;;;;;5034321;28;20301;-50
2023/03/28 05:16:41;;;;;;;226.63;203.67;;;-0.20;99.90;;;;;;5031969;28;20329;-50
2023/03/28 05:19:09;;;;;;;176.67;160.43;;;-0.20;99.90;;;;;;5032129;28;20241;-50
2023/03/28 05:21:39;;;;;;;240.77;219.00;;;-0.20;99.90;;;;;;5032300;28;20211;-51
2023/03/28 05:24:10;;;;;;;273.13;244.43;;;-0.20;99.90;;;;;;5016360;28;20294;-50
2023/03/28 05:26:38;;;;;;;433.47;371.77;;;-0.20;99.90;;;;;;5027292;28;20340;-53
2023/03/28 05:29:06;;;;;;;180.97;165.00;;;-0.10;99.90;;;;;;5021099;28;20658;-53
2023/03/28 05:31:34;;;;;;;151.40;136.70;;;-0.10;99.90;;;;;;5031777;28;20313;-53
2023/03/28 05:34:02;;;;;;;109.87;99.57;;;0.00;99.90;;;;;;5031730;28;20218;-53
2023/03/28 05:36:30;;;;;;;186.73;169.47;;;0.00;99.90;;;;;;5030964;28;20884;-53
2023/03/28 05:38:58;;;;;;;223.60;200.57;;;0.00;99.90;;;;;;5031113;28;20202;-52
2023/03/28 05:41:28;;;;;;;262.93;240.57;;;0.00;99.90;;;;;;5031321;28;20211;-53
2023/03/28 05:43:56;;;;;;;203.80;186.80;;;0.10;99.90;;;;;;5030688;28;20211;-53
2023/03/28 05:46:24;;;;;;;146.10;134.10;;;0.10;99.90;;;;;;5030734;28;20267;-53
2023/03/28 05:48:53;;;;;;;178.77;163.03;;;0.10;99.90;;;;;;5031032;28;20284;-53
2023/03/28 05:51:21;;;;;;;159.67;143.67;;;0.20;99.90;;;;;;5030675;28;20299;-52
2023/03/28 05:53:49;;;;;;;163.23;148.00;;;0.30;99.90;;;;;;5030757;28;20249;-53
2023/03/28 05:56:17;;;;;;;99.43;89.60;;;0.40;99.90;;;;;;5030684;28;20723;-52
2023/03/28 05:58:47;;;;;;;72.13;61.77;;;0.40;99.90;;;;;;5030974;28;20636;-53
2023/03/28 06:01:16;;;;;;;104.20;94.63;;;0.50;99.90;;;;;;5030635;28;20214;-53
2023/03/28 06:03:45;;;;;;;118.53;105.70;;;0.60;99.90;;;;;;5017361;28;20211;-53
2023/03/28 06:06:13;;;;;;;149.23;137.07;;;0.70;99.90;;;;;;5030333;28;20300;-53
2023/03/28 06:08:41;;;;;;;130.03;118.10;;;0.90;99.90;;;;;;5030286;28;20230;-52
2023/03/28 06:11:09;;;;;;;114.67;103.97;;;1.10;99.90;;;;;;5030859;28;20230;-53
2023/03/28 06:13:37;;;;;;;77.77;62.40;;;1.20;99.90;;;;;;5030501;28;20293;-51
2023/03/28 06:16:07;;;;;;;52.53;41.60;;;1.30;99.90;;;;;;5030666;28;20308;-52
2023/03/28 06:18:35;;;;;;;111.23;100.10;;;1.30;99.90;;;;;;5030582;28;20202;-52
2023/03/28 06:21:03;;;;;;;63.17;57.10;;;1.30;99.90;;;;;;5030554;28;20295;-52
2023/03/28 06:23:31;;;;;;;134.20;120.77;;;1.40;99.90;;;;;;5030734;28;20300;-53
2023/03/28 06:26:00;;;;;;;128.70;117.10;;;1.40;99.90;;;;;;5030575;28;20222;-50
2023/03/28 06:28:28;;;;;;;149.80;136.73;;;1.40;99.90;;;;;;5030300;28;20233;-50
2023/03/28 06:30:56;;;;;;;234.60;172.77;;;1.40;99.90;;;;;;5030243;28;20289;-50
2023/03/28 06:33:25;;;;;;;122.93;112.00;;;1.60;99.90;;;;;;5030418;28;20213;-51
2023/03/28 06:35:53;;;;;;;198.97;180.00;;;1.80;99.90;;;;;;5029662;28;20227;-51
2023/03/28 06:38:21;;;;;;;120.27;107.63;;;2.00;99.90;;;;;;5030378;28;20206;-50
2023/03/28 06:40:49;;;;;;;156.77;140.53;;;2.40;99.90;;;;;;5030276;28;20277;-50
2023/03/28 06:43:17;;;;;;;213.23;144.17;;;2.30;99.90;;;;;;5030108;28;20772;-50
2023/03/28 06:45:46;;;;;;;209.73;176.07;;;2.30;99.90;;;;;;5029854;28;20232;-50
2023/03/28 06:48:14;;;;;;;306.63;161.83;;;2.40;99.90;;;;;;5029814;28;20692;-50
2023/03/28 06:50:48;;;;;;;498.40;224.03;;;2.60;99.90;;;;;;5029838;28;20255;-50
2023/03/28 06:53:17;;;;;;;1319.57;448.80;;;3.00;99.90;;;;;;5030211;28;20194;-51
2023/03/28 06:55:45;;;;;;;1349.47;526.70;;;3.40;99.90;;;;;;5029394;28;20254;-50
2023/03/28 06:58:13;;;;;;;1999.90;794.03;;;3.70;99.90;;;;;;5029616;28;20222;-51
2023/03/28 07:00:41;;;;;;;1999.90;737.00;;;4.10;99.90;;;;;;5029794;28;20217;-50
2023/03/28 07:03:09;;;;;;;1999.90;759.27;;;4.50;99.90;;;;;;5029517;28;20241;-50
2023/03/28 07:05:40;;;;;;;1999.90;911.37;;;4.80;99.90;;;;;;5029755;28;20593;-50
2023/03/28 07:08:11;;;;;;;1999.90;911.07;;;5.00;99.90;;;;;;5029879;28;20206;-50
2023/03/28 07:10:40;;;;;;;1999.90;940.33;;;5.20;99.90;;;;;;5029150;28;20734;-50
2023/03/28 07:13:08;;;;;;;1999.90;775.57;;;5.40;99.90;;;;;;5029349;28;20297;-51
2023/03/28 07:15:36;;;;;;;1999.90;877.60;;;5.60;99.90;;;;;;5028354;28;20249;-53
2023/03/28 07:18:05;;;;;;;1999.90;888.20;;;5.70;99.90;;;;;;5028831;28;20324;-52
2023/03/28 07:20:34;;;;;;;1999.90;862.53;;;5.80;99.90;;;;;;5027996;28;20211;-53
2023/03/28 07:23:02;;;;;;;1999.90;813.20;;;6.00;99.90;;;;;;5028401;28;20214;-54
2023/03/28 07:25:31;;;;;;;1999.90;837.30;;;6.10;99.90;;;;;;5029428;28;20234;-50
2023/03/28 07:27:59;;;;;;;1999.90;819.47;;;6.10;99.90;;;;;;5029548;28;20296;-51
2023/03/28 07:30:27;;;;;;;1999.90;872.50;;;6.30;99.90;;;;;;5029524;28;20283;-51
2023/03/28 07:32:55;;;;;;;1999.90;844.97;;;6.40;99.90;;;;;;5028801;28;20646;-50
2023/03/28 07:35:40;;;;;;;1999.90;855.83;;;6.50;99.90;;;;;;5029002;28;20238;-50
2023/03/28 07:38:08;;;;;;;1999.90;841.17;;;6.50;99.90;;;;;;5029161;28;20209;-51
2023/03/28 07:40:38;;;;;;;1999.90;860.80;;;6.50;99.90;;;;;;5028933;28;20210;-51
2023/03/28 07:43:06;;;;;;;1999.90;788.50;;;6.60;99.90;;;;;;5029120;28;20297;-51
2023/03/28 07:45:35;;;;;;;1999.90;842.77;;;6.70;99.90;;;;;;5028605;28;20357;-49
2023/03/28 07:48:04;;;;;;;1999.90;967.73;;;6.80;99.90;;;;;;5028212;28;20203;-51
2023/03/28 07:50:32;;;;;;;1999.90;885.23;;;6.80;99.90;;;;;;5029197;28;20229;-50
2023/03/28 07:53:00;;;;;;;1999.90;941.23;;;6.90;99.90;;;;;;5028968;28;20297;-50
2023/03/28 07:55:29;;;;;;;1999.90;860.60;;;7.00;99.90;;;;;;5029086;28;20341;-49
2023/03/28 07:58:03;;;;;;;1999.90;902.73;;;7.10;99.90;;;;;;5028612;28;20198;-51
2023/03/28 08:00:31;;;;;;;1999.90;898.17;;;7.30;99.90;;;;;;5029049;28;20257;-50
2023/03/28 08:02:59;;;;;;;1999.90;877.77;;;7.30;99.90;;;;;;5029068;28;20237;-50
2023/03/28 08:05:27;;;;;;;1999.90;999.90;;;7.10;99.90;;;;;;5028812;28;20226;-51
2023/03/28 08:07:55;;;;;;;1999.90;999.27;;;6.90;99.90;;;;;;5028731;28;20209;-51
2023/03/28 08:10:23;;;;;;;1999.90;999.90;;;7.00;99.90;;;;;;5028583;28;20330;-51
2023/03/28 08:12:51;;;;;;;1999.90;985.63;;;7.10;99.90;;;;;;5028818;28;20228;-50
2023/03/28 08:15:21;;;;;;;1999.90;937.30;;;7.30;99.90;;;;;;5028749;28;20312;-50
2023/03/28 08:17:49;;;;;;;1999.90;999.90;;;7.60;99.90;;;;;;5015952;28;20735;-51
2023/03/28 08:20:18;;;;;;;1999.90;999.90;;;7.40;99.90;;;;;;5029129;28;20214;-51
2023/03/28 08:22:46;;;;;;;1572.33;848.43;;;7.30;99.90;;;;;;5029017;28;20217;-51
2023/03/28 08:25:14;;;;;;;1980.30;868.20;;;7.30;99.90;;;;;;5029098;28;20302;-50
2023/03/28 08:27:42;;;;;;;1999.90;952.20;;;7.20;99.90;;;;;;5028446;28;20202;-51
2023/03/28 08:30:10;;;;;;;1999.90;999.90;;;7.10;99.90;;;;;;5026252;28;20236;-50
2023/03/28 08:32:40;;;;;;;1137.37;790.13;;;7.10;99.90;;;;;;5028688;28;20229;-51
2023/03/28 08:35:09;;;;;;;1534.60;675.60;;;7.30;99.90;;;;;;5027453;28;20693;-51
2023/03/28 08:37:37;;;;;;;1741.23;999.77;;;7.40;99.90;;;;;;5028284;28;20209;-51
2023/03/28 08:40:09;;;;;;;1999.90;999.90;;;7.50;99.90;;;;;;5028922;28;20214;-50
2023/03/28 08:42:54;;;;;;;1959.63;802.27;;;7.60;99.90;;;;;;5028532;28;20703;-51
2023/03/28 08:45:31;;;;;;;1999.90;999.90;;;7.70;99.90;;;;;;5028623;28;20230;-51
2023/03/28 08:48:11;;;;;;;1999.90;999.90;;;7.70;99.90;;;;;;5020439;28;20210;-52
2023/03/28 08:50:43;;;;;;;1999.90;952.40;;;7.80;99.90;;;;;;5027698;28;20951;-51
2023/03/28 08:53:19;;;;;;;1999.90;999.90;;;7.70;99.90;;;;;;5025573;28;20800;-51
2023/03/28 08:55:48;;;;;;;1999.90;999.90;;;7.40;99.90;;;;;;5028156;28;20276;-50
2023/03/28 08:58:22;;;;;;;1941.37;930.37;;;7.20;99.90;;;;;;5029977;28;20746;-51
2023/03/28 09:00:51;;;;;;;1999.90;999.90;;;7.20;99.90;;;;;;5031909;28;20206;-50
2023/03/28 09:03:22;;;;;;;1999.90;999.90;;;7.00;99.90;;;;;;5031741;28;20305;-51
2023/03/28 09:05:54;;;;;;;1683.00;933.80;;;6.90;99.90;;;;;;5031677;28;20280;-50
2023/03/28 09:08:43;;;;;;;1416.13;969.97;;;6.90;99.90;;;;;;5031762;28;20640;-50
2023/03/28 09:11:21;;;;;;;1690.17;999.90;;;6.90;99.90;;;;;;5031629;28;20790;-51
2023/03/28 09:14:04;;;;;;;1285.90;848.83;;;7.10;99.90;;;;;;5031639;28;20261;-50
2023/03/28 09:16:43;;;;;;;1999.90;999.90;;;7.40;99.90;;;;;;5031536;28;20226;-51
2023/03/28 09:19:36;;;;;;;1999.90;999.90;;;7.80;99.90;;;;;;5031979;28;20202;-50
2023/03/28 09:22:27;;;;;;;1999.90;999.90;;;7.80;99.90;;;;;;5031649;28;20209;-52
2023/03/28 09:25:07;;;;;;;1999.90;999.90;;;7.80;99.90;;;;;;5031420;28;20293;-51
2023/03/28 09:27:40;;;;;;;1999.90;999.90;;;7.80;99.90;;;;;;5030869;28;20746;-52
2023/03/28 09:30:18;;;;;;;1999.90;999.90;;;7.90;99.90;;;;;;5031118;28;20207;-51
2023/03/28 09:32:48;;;;;;;1999.90;999.90;;;8.10;99.90;;;;;;5030993;28;20856;-54
2023/03/28 09:35:20;;;;;;;1999.90;999.90;;;7.90;99.90;;;;;;5031136;28;20233;-51
2023/03/28 09:37:52;;;;;;;1999.90;999.90;;;7.60;99.90;;;;;;5031108;28;20216;-51
2023/03/28 09:40:23;;;;;;;1999.90;999.90;;;7.40;99.90;;;;;;5031341;28;20237;-51
2023/03/28 09:42:59;;;;;;;1999.90;999.90;;;7.30;99.90;;;;;;5030858;28;20289;-51
2023/03/28 09:45:40;;;;;;;1999.90;999.90;;;7.30;99.90;;;;;;5031441;28;20279;-51
2023/03/28 09:48:13;;;;;;;1985.37;983.20;;;7.10;99.90;;;;;;5031217;28;20255;-51
2023/03/28 09:50:45;;;;;;;1999.90;999.90;;;7.10;99.90;;;;;;5031146;28;20253;-50
2023/03/28 09:53:21;;;;;;;1482.70;999.90;;;7.10;99.90;;;;;;5030454;28;20233;-51
2023/03/28 09:55:50;;;;;;;1192.83;999.90;;;7.00;99.90;;;;;;5030977;28;20222;-51
2023/03/28 09:58:48;;;;;;;1999.90;999.90;;;7.30;99.90;;;;;;5031237;28;20201;-51
2023/03/28 10:01:41;;;;;;;1999.90;999.90;;;7.60;99.90;;;;;;5024826;28;20208;-51
2023/03/28 10:04:12;;;;;;;1999.90;999.90;;;7.80;99.90;;;;;;5020997;28;20252;-51
2023/03/28 10:06:44;;;;;;;1999.90;999.90;;;8.10;99.90;;;;;;5026052;28;20723;-50
2023/03/28 10:09:21;;;;;;;1850.63;999.90;;;8.10;99.90;;;;;;5029378;28;20214;-51
2023/03/28 10:11:53;;;;;;;1999.90;999.90;;;8.10;99.90;;;;;;5029717;28;20284;-50
2023/03/28 10:14:35;;;;;;;1999.90;999.90;;;8.00;99.90;;;;;;5030412;28;20246;-51
2023/03/28 10:17:06;;;;;;;1999.90;999.90;;;7.70;99.90;;;;;;5030437;28;20222;-51
2023/03/28 10:19:37;;;;;;;1999.90;999.90;;;7.80;99.90;;;;;;5030329;28;20626;-51
2023/03/28 10:22:10;;;;;;;1999.90;999.90;;;7.90;99.90;;;;;;5023885;28;20209;-51
2023/03/28 10:24:39;;;;;;;1999.90;906.30;;;8.20;99.90;;;;;;5030023;28;20301;-51
2023/03/28 10:27:17;;;;;;;1999.90;999.90;;;8.60;99.90;;;;;;5029638;28;20226;-51
2023/03/28 10:29:46;;;;;;;1999.90;999.90;;;8.80;99.90;;;;;;5030165;28;20770;-51
2023/03/28 10:32:24;;;;;;;1999.90;999.90;;;8.60;99.90;;;;;;5029690;28;20237;-50
2023/03/28 10:35:02;;;;;;;1999.90;999.90;;;8.40;99.90;;;;;;5029873;28;20218;-51
2023/03/28 10:37:33;;;;;;;1999.90;999.90;;;8.50;99.90;;;;;;5029568;28;20206;-51
2023/03/28 10:40:05;;;;;;;1999.90;999.90;;;8.60;99.90;;;;;;5030016;28;20238;-51
2023/03/28 10:42:41;;;;;;;1999.90;999.90;;;8.60;99.90;;;;;;5029202;28;20271;-51
2023/03/28 10:45:22;;;;;;;1999.90;999.90;;;8.60;99.90;;;;;;5029671;28;20209;-51
2023/03/28 10:47:53;;;;;;;1999.90;999.90;;;8.90;99.90;;;;;;5029511;28;20278;-51
2023/03/28 10:50:26;;;;;;;1999.90;999.90;;;8.70;99.90;;;;;;5029998;28;20221;-51
2023/03/28 10:53:09;;;;;;;1999.90;999.90;;;8.90;99.90;;;;;;5029307;28;20234;-50
2023/03/28 10:55:41;;;;;;;1999.90;999.90;;;9.20;99.90;;;;;;5029269;28;20595;-51
2023/03/28 10:58:17;;;;;;;1999.90;999.90;;;9.40;99.90;;;;;;5029361;28;20305;-51
2023/03/28 11:00:51;;;;;;;1999.90;999.90;;;9.50;99.90;;;;;;5029577;28;20816;-50
2023/03/28 11:03:37;;;;;;;1999.90;999.90;;;9.30;99.90;;;;;;5029246;28;20254;-50
2023/03/28 11:06:12;;;;;;;1999.90;999.90;;;9.20;99.90;;;;;;5029699;28;20241;-51
2023/03/28 11:08:49;;;;;;;1999.90;999.90;;;9.20;99.90;;;;;;5029444;28;20288;-51
2023/03/28 11:11:35;;;;;;;1999.90;999.90;;;9.00;99.90;;;;;;5019719;28;20313;-51
2023/03/28 11:14:14;;;;;;;1999.90;999.90;;;9.00;99.90;;;;;;5028606;28;20206;-51
2023/03/28 11:16:51;;;;;;;1999.90;999.90;;;8.80;99.90;;;;;;5029178;28;20774;-51
2023/03/28 11:19:33;;;;;;;1999.90;999.90;;;8.90;99.90;;;;;;5029227;28;20243;-51
2023/03/28 11:22:10;;;;;;;1999.90;999.90;;;8.90;99.90;;;;;;5029168;28;20212;-51
2023/03/28 11:24:47;;;;;;;1999.90;999.90;;;9.00;99.90;;;;;;5028900;28;20209;-51
2023/03/28 11:27:22;;;;;;;1999.90;999.90;;;9.10;99.90;;;;;;5029108;28;20249;-50
2023/03/28 11:29:55;;;;;;;1999.90;999.90;;;9.20;99.90;;;;;;5015513;28;20241;-51
2023/03/28 11:32:28;;;;;;;1999.90;999.90;;;9.30;99.90;;;;;;5029014;28;20218;-51
2023/03/28 11:35:06;;;;;;;1999.90;999.90;;;9.30;99.90;;;;;;5015959;28;20219;-51
2023/03/28 11:37:40;;;;;;;1999.90;999.90;;;9.20;99.90;;;;;;5028683;28;20916;-51
2023/03/28 11:40:20;;;;;;;1999.90;999.90;;;9.30;99.90;;;;;;5028878;28;20213;-51
2023/03/28 11:42:55;;;;;;;1999.90;999.90;;;9.50;99.90;;;;;;5028356;28;20205;-51
2023/03/28 11:45:27;;;;;;;1999.90;999.90;;;9.80;99.90;;;;;;5017920;28;20742;-51
2023/03/28 11:48:20;;;;;;;1999.90;999.90;;;9.90;99.90;;;;;;5028824;28;20213;-50
2023/03/28 11:51:02;;;;;;;1999.90;999.90;;;10.00;99.90;;;;;;5028923;28;20210;-52
2023/03/28 11:53:35;;;;;;;1999.90;999.90;;;9.60;99.90;;;;;;5029344;28;20307;-50
2023/03/28 11:56:15;;;;;;;1999.90;999.90;;;9.40;99.90;;;;;;5029665;28;20254;-51
2023/03/28 11:58:48;;;;;;;1999.90;999.90;;;9.30;99.90;;;;;;5029855;28;20301;-51
2023/03/28 12:01:21;;;;;;;1999.90;999.90;;;9.20;99.90;;;;;;5029120;28;20305;-50
2023/03/28 12:04:00;;;;;;;1999.90;999.90;;;9.00;99.90;;;;;;5028532;28;20208;-51
2023/03/28 12:06:35;;;;;;;1999.90;999.90;;;8.90;99.90;;;;;;5022408;28;20235;-51
2023/03/28 12:09:15;;;;;;;1999.90;999.90;;;8.90;99.90;;;;;;5028452;28;20205;-51
2023/03/28 12:11:52;;;;;;;1999.90;999.90;;;9.10;99.90;;;;;;5028087;28;20225;-51
2023/03/28 12:14:40;;;;;;;1999.90;999.90;;;9.30;99.90;;;;;;5028212;28;20300;-51
2023/03/28 12:17:17;;;;;;;1999.90;999.90;;;9.40;99.90;;;;;;5028454;28;20230;-51
2023/03/28 12:19:47;;;;;;;1999.90;999.90;;;9.50;99.90;;;;;;5028924;28;20218;-51
2023/03/28 12:22:22;;;;;;;1999.90;999.90;;;9.70;99.90;;;;;;5030357;28;20241;-51
2023/03/28 12:24:57;;;;;;;1999.90;999.90;;;9.80;99.90;;;;;;5028017;28;20630;-51
2023/03/28 12:27:41;;;;;;;1999.90;999.90;;;9.80;99.90;;;;;;5028273;28;20205;-50
2023/03/28 12:30:19;;;;;;;1999.90;999.90;;;9.90;99.90;;;;;;5028384;28;20210;-50
2023/03/28 12:32:54;;;;;;;1999.90;999.90;;;9.90;99.90;;;;;;5029235;28;20230;-51
2023/03/28 12:35:30;;;;;;;1999.90;999.90;;;9.90;99.90;;;;;;5032078;28;20229;-50
2023/03/28 12:38:08;;;;;;;1999.90;999.90;;;9.90;99.90;;;;;;5032245;28;20210;-50
2023/03/28 12:40:52;;;;;;;1999.90;999.90;;;9.90;99.90;;;;;;5031738;28;20202;-50